Time;durP1;ratioP1;P1;durP2;ratioP2;P2;SDS_P1;SDS_P2;PMS_P1;PMS_P2;Temp;Humidity;BMP_temperature;BMP_pressure;BME280_temperature;BME280_humidity;BME280_pressure;Samples;Min_cycle;Max_cycle;Signal;HPM_P1;HPM_P2
2022/12/16 00:01:15;;;;;;;12.20;5.38;;;;;;;-1.79;76.91;100083.84;5053932;28;20102;-53
2022/12/16 00:03:46;;;;;;;10.05;4.78;;;;;;;-1.81;77.14;100086.34;5053249;28;20095;-51
2022/12/16 00:06:14;;;;;;;9.15;4.93;;;;;;;-1.82;76.18;100087.13;5055916;28;20162;-53
2022/12/16 00:08:41;;;;;;;13.88;5.53;;;;;;;-1.82;77.00;100092.19;5051921;28;20038;-51
2022/12/16 00:11:08;;;;;;;10.68;4.43;;;;;;;-1.83;77.39;100093.00;5033672;28;20045;-55
2022/12/16 00:13:39;;;;;;;12.25;5.20;;;;;;;-1.82;76.61;100104.88;5050661;28;20404;-54
2022/12/16 00:16:09;;;;;;;17.15;5.65;;;;;;;-1.83;77.13;100092.13;5052608;28;20463;-56
2022/12/16 00:18:36;;;;;;;14.60;5.10;;;;;;;-1.79;76.93;100090.63;5050123;28;20135;-55
2022/12/16 00:21:03;;;;;;;13.35;5.85;;;;;;;-1.78;77.34;100095.78;5051266;28;20074;-54
2022/12/16 00:23:31;;;;;;;12.65;6.25;;;;;;;-1.78;77.33;100094.88;5053368;28;20106;-49
2022/12/16 00:25:59;;;;;;;19.02;5.68;;;;;;;-1.79;76.83;100090.63;5055363;28;20060;-51
2022/12/16 00:28:25;;;;;;;11.70;6.07;;;;;;;-1.82;76.76;100099.81;5053603;28;20101;-51
2022/12/16 00:30:54;;;;;;;13.77;5.28;;;;;;;-1.83;76.64;100102.28;5052085;28;20053;-49
2022/12/16 00:33:23;;;;;;;12.25;5.50;;;;;;;-1.86;76.48;100108.09;5055123;28;20052;-53
2022/12/16 00:35:50;;;;;;;12.23;5.35;;;;;;;-1.88;77.28;100107.16;5053138;28;20493;-57
2022/12/16 00:38:18;;;;;;;12.50;5.88;;;;;;;-1.89;76.46;100107.94;5065455;28;20055;-55
2022/12/16 00:40:44;;;;;;;13.57;5.20;;;;;;;-1.91;76.29;100098.50;5071154;28;20052;-56
2022/12/16 00:43:11;;;;;;;11.30;5.30;;;;;;;-1.94;76.77;100095.03;5071666;28;20133;-52
2022/12/16 00:45:38;;;;;;;10.50;4.85;;;;;;;-1.95;76.53;100092.41;5073104;28;20052;-57
2022/12/16 00:48:06;;;;;;;10.73;4.95;;;;;;;-1.98;76.23;100098.22;5071741;28;20551;-55
2022/12/16 00:50:34;;;;;;;18.25;5.55;;;;;;;-2.00;76.80;100093.84;5075954;28;20045;-49
2022/12/16 00:53:01;;;;;;;14.32;6.13;;;;;;;-2.04;76.31;100102.09;5071761;28;20078;-54
2022/12/16 00:55:28;;;;;;;12.48;5.75;;;;;;;-2.09;76.51;100105.28;5074643;28;20084;-53
2022/12/16 00:57:55;;;;;;;12.73;5.00;;;;;;;-2.13;76.62;100095.78;5069161;28;20048;-56
2022/12/16 01:00:22;;;;;;;11.93;5.28;;;;;;;-2.18;76.93;100099.78;5063679;28;20052;-52
2022/12/16 01:02:50;;;;;;;11.50;5.47;;;;;;;-2.20;76.12;100101.34;5061898;28;20052;-52
2022/12/16 01:05:20;;;;;;;14.23;6.07;;;;;;;-2.24;75.98;100099.44;5058856;28;20044;-54
2022/12/16 01:07:47;;;;;;;14.45;6.28;;;;;;;-2.26;75.68;100101.06;5056659;28;20607;-54
2022/12/16 01:10:14;;;;;;;12.20;6.20;;;;;;;-2.32;76.60;100102.47;5065212;28;20079;-52
2022/12/16 01:12:41;;;;;;;13.60;6.35;;;;;;;-2.35;76.50;100104.00;5059204;28;20051;-50
2022/12/16 01:15:09;;;;;;;12.02;6.65;;;;;;;-2.39;75.64;100097.91;5063395;28;20054;-54
2022/12/16 01:17:35;;;;;;;13.52;5.15;;;;;;;-2.44;76.48;100101.84;5066193;28;20737;-56
2022/12/16 01:20:02;;;;;;;13.20;5.97;;;;;;;-2.46;75.58;100098.38;5062132;28;20095;-53
2022/12/16 01:22:31;;;;;;;14.43;6.38;;;;;;;-2.49;76.71;100100.75;5062254;28;20053;-57
2022/12/16 01:24:59;;;;;;;8.95;4.20;;;;;;;-2.51;75.98;100104.88;5063012;28;20048;-53
2022/12/16 01:27:26;;;;;;;10.90;5.63;;;;;;;-2.54;76.76;100105.59;5057834;28;20820;-54
2022/12/16 01:29:53;;;;;;;15.20;5.93;;;;;;;-2.57;76.05;100100.34;5056852;28;20110;-54
2022/12/16 01:32:21;;;;;;;10.93;5.22;;;;;;;-2.55;76.81;100108.03;5062623;28;20045;-54
2022/12/16 01:34:50;;;;;;;12.52;5.18;;;;;;;-2.57;76.61;100107.97;5061844;28;20044;-57
2022/12/16 01:37:22;;;;;;;9.18;4.40;;;;;;;-2.59;76.58;100112.97;5062182;28;20041;-56
2022/12/16 01:39:50;;;;;;;14.00;6.55;;;;;;;-2.57;76.11;100120.66;5063072;28;20098;-49
2022/12/16 01:42:20;;;;;;;13.98;5.82;;;;;;;-2.61;76.49;100114.56;5059241;28;20044;-57
2022/12/16 01:44:49;;;;;;;11.95;4.97;;;;;;;-2.61;76.19;100122.16;5061788;28;20052;-51
2022/12/16 01:47:30;;;;;;;12.85;5.32;;;;;;;-2.62;76.56;100122.06;5062984;28;20040;-50
2022/12/16 01:50:01;;;;;;;15.57;5.13;;;;;;;-2.63;76.50;100126.28;5063189;28;20094;-55
2022/12/16 01:52:35;;;;;;;12.88;5.57;;;;;;;-2.65;75.97;100127.88;5056778;28;20133;-50
2022/12/16 01:55:08;;;;;;;12.30;5.47;;;;;;;-2.64;76.58;100139.75;5063713;28;20068;-58
2022/12/16 01:57:41;;;;;;;14.77;5.28;;;;;;;-2.64;76.37;100134.69;5071433;28;20468;-52
2022/12/16 02:00:09;;;;;;;16.45;6.38;;;;;;;-2.65;76.05;100144.72;5059578;28;20040;-54
2022/12/16 02:02:36;;;;;;;20.05;6.07;;;;;;;-2.67;76.61;100144.66;5058117;28;20056;-53
2022/12/16 02:07:57;;;;;;;10.88;5.90;;;;;;;-2.69;76.08;100141.19;5061472;28;20420;-54
2022/12/16 02:10:37;;;;;;;11.90;5.43;;;;;;;-2.71;76.33;100148.72;5063080;28;20678;-54
2022/12/16 02:19:23;;;;;;;14.15;6.03;;;;;;;-2.79;76.16;100159.22;5039784;27;20408;-54
2022/12/16 02:22:29;;;;;;;16.48;5.03;;;;;;;-2.86;75.61;100158.91;5051650;28;20050;-55
2022/12/16 02:25:22;;;;;;;11.57;5.53;;;;;;;-2.89;76.84;100153.69;5048501;28;20049;-51
2022/12/16 02:31:21;;;;;;;11.73;6.20;;;;;;;-2.93;75.98;100161.91;5019788;28;20409;-57
2022/12/16 02:37:07;;;;;;;16.08;6.60;;;;;;;-2.99;75.92;100166.63;5076761;27;20403;-51
2022/12/16 02:39:38;;;;;;;14.13;5.13;;;;;;;-3.03;76.79;100169.81;5063024;28;20101;-54
2022/12/16 02:42:14;;;;;;;14.23;8.25;;;;;;;-3.04;76.74;100168.91;5077131;28;20044;-53
2022/12/16 02:45:20;;;;;;;13.60;6.93;;;;;;;-3.10;76.01;100169.44;5078639;28;20224;-49
2022/12/16 02:47:47;;;;;;;15.10;8.32;;;;;;;-3.16;76.69;100169.13;5064856;28;20151;-52
2022/12/16 02:50:37;;;;;;;13.73;6.22;;;;;;;-3.24;76.43;100171.22;5072535;28;20052;-57
2022/12/16 02:53:06;;;;;;;12.18;6.32;;;;;;;-3.27;76.44;100170.22;5079007;28;20079;-53
2022/12/16 02:55:58;;;;;;;14.48;6.00;;;;;;;-3.31;76.70;100175.91;5079422;28;20077;-53
2022/12/16 03:01:14;;;;;;;17.15;8.85;;;;;;;-3.36;75.65;100176.50;4982829;27;20428;-51
2022/12/16 03:03:48;;;;;;;15.40;6.60;;;;;;;-3.37;75.89;100179.81;4991424;28;20051;-53
2022/12/16 03:06:18;;;;;;;19.30;6.38;;;;;;;-3.38;76.30;100177.22;4996711;28;20053;-55
2022/12/16 03:08:51;;;;;;;15.55;7.07;;;;;;;-3.39;76.28;100181.41;4997462;28;20461;-53
2022/12/16 03:11:17;;;;;;;16.75;6.57;;;;;;;-3.41;76.53;100185.50;4992520;28;20070;-50
2022/12/16 03:13:49;;;;;;;18.23;8.48;;;;;;;-3.43;75.63;100184.56;4978709;28;20615;-57
2022/12/16 03:16:20;;;;;;;14.57;7.10;;;;;;;-3.44;76.35;100182.81;4982177;28;20101;-50
2022/12/16 03:18:51;;;;;;;13.38;5.97;;;;;;;-3.47;75.59;100185.16;4990351;28;20060;-53
2022/12/16 03:21:23;;;;;;;19.15;8.23;;;;;;;-3.48;76.65;100191.00;4981347;28;20074;-53
2022/12/16 03:23:57;;;;;;;14.80;8.60;;;;;;;-3.49;75.87;100186.72;4979040;28;20055;-52
2022/12/16 03:26:33;;;;;;;17.88;6.95;;;;;;;-3.50;76.08;100187.53;4982641;28;20406;-52
2022/12/16 03:29:06;;;;;;;12.60;8.00;;;;;;;-3.50;75.75;100187.53;4978519;28;20125;-57
2022/12/16 03:31:40;;;;;;;16.38;9.35;;;;;;;-3.51;75.71;100185.78;4974883;28;20150;-56
2022/12/16 03:34:16;;;;;;;14.25;6.32;;;;;;;-3.54;76.68;100191.56;4981586;28;20058;-50
2022/12/16 03:36:48;;;;;;;12.38;7.10;;;;;;;-3.54;75.92;100189.03;4980742;28;20061;-55
2022/12/16 03:39:18;;;;;;;16.55;7.20;;;;;;;-3.55;75.94;100186.41;4977419;28;20042;-55
2022/12/16 03:41:48;;;;;;;14.18;6.07;;;;;;;-3.55;75.76;100186.41;4975620;28;20078;-53
2022/12/16 03:44:16;;;;;;;12.60;6.90;;;;;;;-3.57;76.14;100178.72;4981360;28;20050;-53
2022/12/16 03:46:44;;;;;;;15.90;6.07;;;;;;;-3.59;75.84;100176.88;4981559;28;20074;-54
2022/12/16 03:49:10;;;;;;;11.60;5.00;;;;;;;-3.61;76.59;100175.13;4981044;28;20129;-53
2022/12/16 03:51:37;;;;;;;16.17;6.28;;;;;;;-3.62;76.40;100175.91;4976191;28;20086;-53
2022/12/16 03:54:04;;;;;;;15.23;7.60;;;;;;;-3.65;76.09;100178.25;4978020;28;20522;-55
2022/12/16 03:56:30;;;;;;;16.80;7.93;;;;;;;-3.66;76.27;100181.59;4977844;28;20050;-51
2022/12/16 03:58:57;;;;;;;13.45;8.02;;;;;;;-3.68;76.42;100185.69;4977093;28;20090;-54
2022/12/16 04:01:24;;;;;;;15.95;8.50;;;;;;;-3.71;76.33;100192.25;4976912;28;20051;-53
2022/12/16 04:03:50;;;;;;;16.90;7.80;;;;;;;-3.76;76.20;100195.38;4977277;28;20058;-55
2022/12/16 04:06:17;;;;;;;16.98;8.50;;;;;;;-3.79;76.36;100194.31;4979164;28;20465;-56
2022/12/16 04:08:46;;;;;;;15.98;8.23;;;;;;;-3.80;75.40;100202.69;4977168;28;20500;-55
2022/12/16 04:25:27;;;;;;;20.88;9.40;;;;;;;-3.95;75.95;100195.97;4966066;28;20556;-52
2022/12/16 04:27:53;;;;;;;24.05;11.23;;;;;;;-3.97;76.04;100192.47;4983453;28;20133;-55
2022/12/16 04:30:20;;;;;;;24.58;10.00;;;;;;;-3.97;75.41;100194.13;4981463;28;20108;-51
